Minnehaha, West Virginia
Current Conditions -  °F | °C
As of 9:15 AM on Tuesday 21 Oct 2014 (Local Time) from KHSP Reporting Station
Moderate Fog Moderate Fog  
Wind Chill: 40°   Ceiling: 300
Heat Index: 45°   Visibility: 0mi
Dew Point: 45°   Wind: 9mph
Humidity: 99%   Direction: 270°W
Pressure: 29.91"   Gusts: NA
Location:  38.2213°N, 80.0565°W
Report Text: KHSP 211315Z AUTO 27008KT M1/4SM FG OVC003 07/07 A2991 RMK AO2 T00710070
Loading
Personal Weather Stations






























Interactive Weather Map
Tropical Storm Tracking
New forecast layout! Learn more

10-Day Weather Forecast

Advertisements
Track Severe Weather on mobile